Leeswood, United Kingdom
Current Conditions -  °F | °C
As of 11:20 AM on Sunday 21 Dec 2014 (Local Time) from EGNR Reporting Station
Broken Clouds Broken Clouds  
Wind Chill: 12°   Ceiling: 3200
Heat Index: 12°   Visibility: 6mi
Dew Point:   Wind: 28mph
Humidity: 82%   Direction: 240°WSW
Pressure: 30.12"   Gusts: NA
Location:  53.13°N, 3.09°W
Report Text: EGNR 211120Z 24024KT 9999 SCT025 BKN032 12/09 Q1020
Loading
Personal Weather Stations






























Interactive Weather Map New forecast layout! Learn more

10-Day Weather Forecast

Advertisements
Track Severe Weather on mobile